sensor_id;sensor_type;location;lat;lon;timestamp;P1;durP1;ratioP1;P2;durP2;ratioP2
68216;SDS011;55037;52.354;4.992;2022-12-11T00:00:24;126.20;;;52.78;;
68216;SDS011;55037;52.354;4.992;2022-12-11T00:02:52;126.72;;;50.88;;
68216;SDS011;55037;52.354;4.992;2022-12-11T00:05:19;110.47;;;49.88;;
68216;SDS011;55037;52.354;4.992;2022-12-11T00:07:46;109.15;;;50.60;;
68216;SDS011;55037;52.354;4.992;2022-12-11T00:10:13;87.25;;;44.85;;
68216;SDS011;55037;52.354;4.992;2022-12-11T00:12:41;100.47;;;49.90;;
68216;SDS011;55037;52.354;4.992;2022-12-11T00:15:08;109.13;;;49.65;;
68216;SDS011;55037;52.354;4.992;2022-12-11T00:17:37;108.50;;;49.58;;
68216;SDS011;55037;52.354;4.992;2022-12-11T00:20:04;105.90;;;49.97;;
68216;SDS011;55037;52.354;4.992;2022-12-11T00:22:33;87.90;;;44.88;;
68216;SDS011;55037;52.354;4.992;2022-12-11T00:25:01;90.83;;;46.63;;
68216;SDS011;55037;52.354;4.992;2022-12-11T00:27:28;97.57;;;48.67;;
68216;SDS011;55037;52.354;4.992;2022-12-11T00:29:55;96.13;;;47.83;;
68216;SDS011;55037;52.354;4.992;2022-12-11T00:32:24;99.30;;;47.58;;
68216;SDS011;55037;52.354;4.992;2022-12-11T00:34:54;102.13;;;48.70;;
68216;SDS011;55037;52.354;4.992;2022-12-11T00:37:21;94.78;;;48.47;;
68216;SDS011;55037;52.354;4.992;2022-12-11T00:39:48;104.82;;;50.13;;
68216;SDS011;55037;52.354;4.992;2022-12-11T00:42:16;99.93;;;48.47;;
68216;SDS011;55037;52.354;4.992;2022-12-11T00:44:43;105.50;;;49.63;;
68216;SDS011;55037;52.354;4.992;2022-12-11T00:47:10;97.68;;;46.97;;
68216;SDS011;55037;52.354;4.992;2022-12-11T00:49:38;96.07;;;46.40;;
68216;SDS011;55037;52.354;4.992;2022-12-11T00:52:09;117.30;;;53.93;;
68216;SDS011;55037;52.354;4.992;2022-12-11T00:54:36;106.18;;;51.22;;
68216;SDS011;55037;52.354;4.992;2022-12-11T00:57:04;109.55;;;52.08;;
68216;SDS011;55037;52.354;4.992;2022-12-11T00:59:31;104.75;;;50.63;;
68216;SDS011;55037;52.354;4.992;2022-12-11T01:01:58;112.95;;;50.50;;
68216;SDS011;55037;52.354;4.992;2022-12-11T01:04:25;108.90;;;51.28;;
68216;SDS011;55037;52.354;4.992;2022-12-11T01:06:52;106.53;;;52.10;;
68216;SDS011;55037;52.354;4.992;2022-12-11T01:09:20;116.25;;;52.08;;
68216;SDS011;55037;52.354;4.992;2022-12-11T01:12:06;113.50;;;53.53;;
68216;SDS011;55037;52.354;4.992;2022-12-11T01:14:33;110.82;;;52.17;;
68216;SDS011;55037;52.354;4.992;2022-12-11T01:17:00;107.80;;;53.07;;
68216;SDS011;55037;52.354;4.992;2022-12-11T01:19:28;110.63;;;52.50;;
68216;SDS011;55037;52.354;4.992;2022-12-11T01:21:55;108.63;;;53.53;;
68216;SDS011;55037;52.354;4.992;2022-12-11T01:24:22;115.53;;;52.75;;
68216;SDS011;55037;52.354;4.992;2022-12-11T01:26:49;115.55;;;53.65;;
68216;SDS011;55037;52.354;4.992;2022-12-11T01:29:16;129.45;;;55.72;;
68216;SDS011;55037;52.354;4.992;2022-12-11T01:31:44;106.50;;;53.33;;
68216;SDS011;55037;52.354;4.992;2022-12-11T01:34:11;115.20;;;53.92;;
68216;SDS011;55037;52.354;4.992;2022-12-11T01:36:38;122.72;;;53.17;;
68216;SDS011;55037;52.354;4.992;2022-12-11T01:39:05;115.05;;;53.10;;
68216;SDS011;55037;52.354;4.992;2022-12-11T01:41:33;109.43;;;52.67;;
68216;SDS011;55037;52.354;4.992;2022-12-11T01:46:47;124.63;;;60.13;;
68216;SDS011;55037;52.354;4.992;2022-12-11T01:49:15;103.88;;;51.97;;
68216;SDS011;55037;52.354;4.992;2022-12-11T01:52:05;113.72;;;53.55;;
68216;SDS011;55037;52.354;4.992;2022-12-11T01:54:45;117.95;;;54.42;;
68216;SDS011;55037;52.354;4.992;2022-12-11T01:57:13;105.47;;;53.27;;
68216;SDS011;55037;52.354;4.992;2022-12-11T01:59:42;112.22;;;54.45;;
68216;SDS011;55037;52.354;4.992;2022-12-11T02:02:16;110.47;;;54.80;;
68216;SDS011;55037;52.354;4.992;2022-12-11T02:04:56;105.68;;;53.67;;
68216;SDS011;55037;52.354;4.992;2022-12-11T02:07:23;119.20;;;57.53;;
68216;SDS011;55037;52.354;4.992;2022-12-11T02:09:50;97.95;;;52.08;;
68216;SDS011;55037;52.354;4.992;2022-12-11T02:15:13;101.38;;;54.05;;
68216;SDS011;55037;52.354;4.992;2022-12-11T02:31:23;85.68;;;52.28;;
68216;SDS011;55037;52.354;4.992;2022-12-11T02:34:12;82.80;;;51.03;;
68216;SDS011;55037;52.354;4.992;2022-12-11T02:36:44;81.32;;;53.78;;
68216;SDS011;55037;52.354;4.992;2022-12-11T02:39:15;79.67;;;50.90;;
68216;SDS011;55037;52.354;4.992;2022-12-11T02:41:48;80.55;;;50.47;;
68216;SDS011;55037;52.354;4.992;2022-12-11T02:44:18;83.75;;;50.72;;
68216;SDS011;55037;52.354;4.992;2022-12-11T02:46:50;73.13;;;48.92;;
68216;SDS011;55037;52.354;4.992;2022-12-11T02:49:18;73.38;;;49.45;;
68216;SDS011;55037;52.354;4.992;2022-12-11T02:51:47;69.20;;;49.35;;
68216;SDS011;55037;52.354;4.992;2022-12-11T02:54:17;63.47;;;45.57;;
68216;SDS011;55037;52.354;4.992;2022-12-11T02:56:52;72.30;;;50.72;;
68216;SDS011;55037;52.354;4.992;2022-12-11T02:59:25;71.53;;;49.10;;
68216;SDS011;55037;52.354;4.992;2022-12-11T03:02:01;69.28;;;48.60;;
68216;SDS011;55037;52.354;4.992;2022-12-11T03:04:29;73.15;;;50.50;;
68216;SDS011;55037;52.354;4.992;2022-12-11T03:06:58;67.60;;;48.65;;
68216;SDS011;55037;52.354;4.992;2022-12-11T03:09:41;64.15;;;47.70;;
68216;SDS011;55037;52.354;4.992;2022-12-11T03:12:10;64.10;;;47.45;;
68216;SDS011;55037;52.354;4.992;2022-12-11T03:14:39;70.15;;;48.45;;
68216;SDS011;55037;52.354;4.992;2022-12-11T03:17:18;58.35;;;45.50;;
68216;SDS011;55037;52.354;4.992;2022-12-11T03:22:18;63.47;;;46.85;;
68216;SDS011;55037;52.354;4.992;2022-12-11T03:25:03;65.77;;;45.60;;
68216;SDS011;55037;52.354;4.992;2022-12-11T03:30:13;63.47;;;46.33;;
68216;SDS011;55037;52.354;4.992;2022-12-11T03:32:53;66.03;;;47.17;;
68216;SDS011;55037;52.354;4.992;2022-12-11T03:38:10;63.60;;;46.35;;
68216;SDS011;55037;52.354;4.992;2022-12-11T03:40:48;62.17;;;47.15;;
68216;SDS011;55037;52.354;4.992;2022-12-11T03:43:19;63.53;;;46.00;;
68216;SDS011;55037;52.354;4.992;2022-12-11T03:45:47;63.37;;;48.07;;
68216;SDS011;55037;52.354;4.992;2022-12-11T03:48:18;64.75;;;48.50;;
68216;SDS011;55037;52.354;4.992;2022-12-11T03:50:47;62.38;;;47.15;;
68216;SDS011;55037;52.354;4.992;2022-12-11T03:53:15;61.63;;;46.47;;
68216;SDS011;55037;52.354;4.992;2022-12-11T03:55:47;57.42;;;44.50;;
68216;SDS011;55037;52.354;4.992;2022-12-11T03:58:17;63.08;;;46.90;;
68216;SDS011;55037;52.354;4.992;2022-12-11T04:00:44;62.10;;;46.05;;
68216;SDS011;55037;52.354;4.992;2022-12-11T04:03:11;60.92;;;47.15;;
68216;SDS011;55037;52.354;4.992;2022-12-11T04:05:44;62.97;;;46.85;;
68216;SDS011;55037;52.354;4.992;2022-12-11T04:08:13;56.85;;;44.60;;
68216;SDS011;55037;52.354;4.992;2022-12-11T04:10:41;54.15;;;43.97;;
68216;SDS011;55037;52.354;4.992;2022-12-11T04:13:09;59.13;;;45.72;;
68216;SDS011;55037;52.354;4.992;2022-12-11T04:15:37;51.90;;;43.00;;
68216;SDS011;55037;52.354;4.992;2022-12-11T04:18:05;53.42;;;42.65;;
68216;SDS011;55037;52.354;4.992;2022-12-11T04:20:52;50.63;;;42.85;;
68216;SDS011;55037;52.354;4.992;2022-12-11T04:23:38;47.45;;;41.67;;
68216;SDS011;55037;52.354;4.992;2022-12-11T04:26:24;48.25;;;41.35;;
68216;SDS011;55037;52.354;4.992;2022-12-11T04:28:52;45.10;;;39.33;;
68216;SDS011;55037;52.354;4.992;2022-12-11T04:31:20;45.50;;;40.50;;
68216;SDS011;55037;52.354;4.992;2022-12-11T04:33:48;43.20;;;38.30;;
68216;SDS011;55037;52.354;4.992;2022-12-11T04:36:16;43.58;;;38.80;;
68216;SDS011;55037;52.354;4.992;2022-12-11T04:38:43;42.93;;;38.13;;
68216;SDS011;55037;52.354;4.992;2022-12-11T04:41:11;44.35;;;38.97;;
68216;SDS011;55037;52.354;4.992;2022-12-11T04:43:40;44.83;;;39.03;;
68216;SDS011;55037;52.354;4.992;2022-12-11T04:46:18;42.67;;;38.07;;
68216;SDS011;55037;52.354;4.992;2022-12-11T04:48:47;45.77;;;39.73;;
68216;SDS011;55037;52.354;4.992;2022-12-11T04:51:22;42.97;;;37.90;;
68216;SDS011;55037;52.354;4.992;2022-12-11T04:53:50;44.10;;;39.30;;
68216;SDS011;55037;52.354;4.992;2022-12-11T04:56:17;44.80;;;39.90;;
68216;SDS011;55037;52.354;4.992;2022-12-11T04:58:45;44.83;;;39.60;;
68216;SDS011;55037;52.354;4.992;2022-12-11T05:01:14;43.25;;;38.15;;
68216;SDS011;55037;52.354;4.992;2022-12-11T05:03:43;43.60;;;38.33;;
68216;SDS011;55037;52.354;4.992;2022-12-11T05:06:11;44.33;;;39.40;;
68216;SDS011;55037;52.354;4.992;2022-12-11T05:08:40;46.83;;;39.85;;
68216;SDS011;55037;52.354;4.992;2022-12-11T05:11:09;45.85;;;39.00;;
68216;SDS011;55037;52.354;4.992;2022-12-11T05:13:37;42.35;;;37.75;;
68216;SDS011;55037;52.354;4.992;2022-12-11T05:16:06;46.20;;;40.03;;
68216;SDS011;55037;52.354;4.992;2022-12-11T05:18:35;44.15;;;39.33;;
68216;SDS011;55037;52.354;4.992;2022-12-11T05:21:03;44.85;;;38.78;;
68216;SDS011;55037;52.354;4.992;2022-12-11T05:23:33;41.08;;;36.25;;
68216;SDS011;55037;52.354;4.992;2022-12-11T05:26:04;45.85;;;37.17;;
68216;SDS011;55037;52.354;4.992;2022-12-11T05:28:34;44.50;;;38.93;;
68216;SDS011;55037;52.354;4.992;2022-12-11T05:31:04;43.10;;;37.50;;
68216;SDS011;55037;52.354;4.992;2022-12-11T05:33:34;43.35;;;37.70;;
68216;SDS011;55037;52.354;4.992;2022-12-11T05:36:01;40.40;;;36.00;;
68216;SDS011;55037;52.354;4.992;2022-12-11T05:38:29;49.00;;;40.38;;
68216;SDS011;55037;52.354;4.992;2022-12-11T05:40:57;46.03;;;39.67;;
68216;SDS011;55037;52.354;4.992;2022-12-11T05:43:27;48.05;;;38.30;;
68216;SDS011;55037;52.354;4.992;2022-12-11T05:46:04;51.47;;;41.50;;
68216;SDS011;55037;52.354;4.992;2022-12-11T05:48:33;46.50;;;40.08;;
68216;SDS011;55037;52.354;4.992;2022-12-11T05:51:02;51.83;;;41.37;;
68216;SDS011;55037;52.354;4.992;2022-12-11T05:53:30;48.13;;;39.38;;
68216;SDS011;55037;52.354;4.992;2022-12-11T05:56:02;52.00;;;42.00;;
68216;SDS011;55037;52.354;4.992;2022-12-11T05:58:30;52.53;;;40.47;;
68216;SDS011;55037;52.354;4.992;2022-12-11T06:00:59;55.10;;;43.00;;
68216;SDS011;55037;52.354;4.992;2022-12-11T06:03:26;49.13;;;41.13;;
68216;SDS011;55037;52.354;4.992;2022-12-11T06:05:53;53.20;;;41.95;;
68216;SDS011;55037;52.354;4.992;2022-12-11T06:08:21;53.17;;;42.87;;
68216;SDS011;55037;52.354;4.992;2022-12-11T06:10:49;57.13;;;45.65;;
68216;SDS011;55037;52.354;4.992;2022-12-11T06:13:16;55.28;;;44.00;;
68216;SDS011;55037;52.354;4.992;2022-12-11T06:15:44;53.95;;;43.00;;
68216;SDS011;55037;52.354;4.992;2022-12-11T06:18:11;54.28;;;43.15;;
68216;SDS011;55037;52.354;4.992;2022-12-11T06:20:38;57.33;;;44.38;;
68216;SDS011;55037;52.354;4.992;2022-12-11T06:23:05;54.37;;;41.00;;
68216;SDS011;55037;52.354;4.992;2022-12-11T06:25:33;55.20;;;43.27;;
68216;SDS011;55037;52.354;4.992;2022-12-11T06:28:00;50.57;;;40.97;;
68216;SDS011;55037;52.354;4.992;2022-12-11T06:30:27;49.13;;;40.13;;
68216;SDS011;55037;52.354;4.992;2022-12-11T06:33:05;50.45;;;40.58;;
68216;SDS011;55037;52.354;4.992;2022-12-11T06:35:32;54.13;;;43.00;;
68216;SDS011;55037;52.354;4.992;2022-12-11T06:38:07;53.57;;;40.90;;
68216;SDS011;55037;52.354;4.992;2022-12-11T06:40:36;56.47;;;44.92;;
68216;SDS011;55037;52.354;4.992;2022-12-11T06:43:04;54.75;;;43.38;;
68216;SDS011;55037;52.354;4.992;2022-12-11T06:45:31;54.63;;;42.00;;
68216;SDS011;55037;52.354;4.992;2022-12-11T06:47:58;52.75;;;42.92;;
68216;SDS011;55037;52.354;4.992;2022-12-11T06:50:25;57.85;;;43.20;;
68216;SDS011;55037;52.354;4.992;2022-12-11T06:52:54;54.63;;;42.50;;
68216;SDS011;55037;52.354;4.992;2022-12-11T06:55:22;56.57;;;43.80;;
68216;SDS011;55037;52.354;4.992;2022-12-11T06:57:49;52.85;;;42.00;;
68216;SDS011;55037;52.354;4.992;2022-12-11T07:00:16;53.13;;;42.55;;
68216;SDS011;55037;52.354;4.992;2022-12-11T07:02:44;53.28;;;41.97;;
68216;SDS011;55037;52.354;4.992;2022-12-11T07:05:11;48.97;;;40.00;;
68216;SDS011;55037;52.354;4.992;2022-12-11T07:07:39;53.50;;;42.47;;
68216;SDS011;55037;52.354;4.992;2022-12-11T07:10:06;52.15;;;41.63;;
68216;SDS011;55037;52.354;4.992;2022-12-11T07:12:34;50.00;;;40.90;;
68216;SDS011;55037;52.354;4.992;2022-12-11T07:15:02;49.15;;;41.90;;
68216;SDS011;55037;52.354;4.992;2022-12-11T07:17:30;51.65;;;42.70;;
68216;SDS011;55037;52.354;4.992;2022-12-11T07:19:58;51.60;;;41.33;;
68216;SDS011;55037;52.354;4.992;2022-12-11T07:22:25;49.47;;;40.78;;
68216;SDS011;55037;52.354;4.992;2022-12-11T07:24:54;44.15;;;38.45;;
68216;SDS011;55037;52.354;4.992;2022-12-11T07:27:21;49.35;;;39.97;;
68216;SDS011;55037;52.354;4.992;2022-12-11T07:29:49;48.78;;;39.72;;
68216;SDS011;55037;52.354;4.992;2022-12-11T07:32:16;49.70;;;40.15;;
68216;SDS011;55037;52.354;4.992;2022-12-11T07:34:44;45.75;;;39.55;;
68216;SDS011;55037;52.354;4.992;2022-12-11T07:37:17;46.75;;;39.72;;
68216;SDS011;55037;52.354;4.992;2022-12-11T07:39:44;46.77;;;39.57;;
68216;SDS011;55037;52.354;4.992;2022-12-11T07:42:12;46.67;;;39.22;;
68216;SDS011;55037;52.354;4.992;2022-12-11T07:44:39;49.75;;;41.63;;
68216;SDS011;55037;52.354;4.992;2022-12-11T07:47:06;48.72;;;39.70;;
68216;SDS011;55037;52.354;4.992;2022-12-11T07:49:33;49.63;;;40.78;;
68216;SDS011;55037;52.354;4.992;2022-12-11T07:52:00;45.05;;;38.45;;
68216;SDS011;55037;52.354;4.992;2022-12-11T07:54:28;45.83;;;38.90;;
68216;SDS011;55037;52.354;4.992;2022-12-11T07:56:55;44.63;;;38.67;;
68216;SDS011;55037;52.354;4.992;2022-12-11T07:59:23;42.33;;;37.10;;
68216;SDS011;55037;52.354;4.992;2022-12-11T08:01:50;45.35;;;38.50;;
68216;SDS011;55037;52.354;4.992;2022-12-11T08:04:17;46.50;;;37.97;;
68216;SDS011;55037;52.354;4.992;2022-12-11T08:06:44;46.75;;;37.20;;
68216;SDS011;55037;52.354;4.992;2022-12-11T08:09:12;45.60;;;37.70;;
68216;SDS011;55037;52.354;4.992;2022-12-11T08:11:47;45.92;;;38.88;;
68216;SDS011;55037;52.354;4.992;2022-12-11T08:14:16;46.95;;;38.38;;
68216;SDS011;55037;52.354;4.992;2022-12-11T08:16:43;44.23;;;37.30;;
68216;SDS011;55037;52.354;4.992;2022-12-11T08:19:11;44.75;;;37.78;;
68216;SDS011;55037;52.354;4.992;2022-12-11T08:21:39;45.00;;;38.10;;
68216;SDS011;55037;52.354;4.992;2022-12-11T08:24:07;44.65;;;38.60;;
68216;SDS011;55037;52.354;4.992;2022-12-11T08:26:34;45.10;;;39.60;;
68216;SDS011;55037;52.354;4.992;2022-12-11T08:29:02;44.05;;;37.38;;
68216;SDS011;55037;52.354;4.992;2022-12-11T08:31:31;42.00;;;36.78;;
68216;SDS011;55037;52.354;4.992;2022-12-11T08:33:59;48.05;;;39.00;;
68216;SDS011;55037;52.354;4.992;2022-12-11T08:36:26;40.55;;;36.03;;
68216;SDS011;55037;52.354;4.992;2022-12-11T08:38:54;43.20;;;37.55;;
68216;SDS011;55037;52.354;4.992;2022-12-11T08:41:23;46.95;;;40.03;;
68216;SDS011;55037;52.354;4.992;2022-12-11T08:43:52;45.90;;;37.63;;
68216;SDS011;55037;52.354;4.992;2022-12-11T08:46:25;42.57;;;37.53;;
68216;SDS011;55037;52.354;4.992;2022-12-11T08:48:54;43.35;;;37.45;;
68216;SDS011;55037;52.354;4.992;2022-12-11T08:51:23;40.53;;;36.15;;
68216;SDS011;55037;52.354;4.992;2022-12-11T08:53:55;39.23;;;35.03;;
68216;SDS011;55037;52.354;4.992;2022-12-11T08:56:24;44.05;;;38.33;;
68216;SDS011;55037;52.354;4.992;2022-12-11T08:58:52;46.70;;;39.08;;
68216;SDS011;55037;52.354;4.992;2022-12-11T09:01:23;46.22;;;39.90;;
68216;SDS011;55037;52.354;4.992;2022-12-11T09:03:53;46.35;;;39.47;;
68216;SDS011;55037;52.354;4.992;2022-12-11T09:06:22;47.20;;;39.87;;
68216;SDS011;55037;52.354;4.992;2022-12-11T09:08:51;49.80;;;41.40;;
68216;SDS011;55037;52.354;4.992;2022-12-11T09:11:20;45.88;;;39.47;;
68216;SDS011;55037;52.354;4.992;2022-12-11T09:13:53;47.95;;;39.88;;
68216;SDS011;55037;52.354;4.992;2022-12-11T09:16:22;49.07;;;41.23;;
68216;SDS011;55037;52.354;4.992;2022-12-11T09:18:51;47.67;;;40.58;;
68216;SDS011;55037;52.354;4.992;2022-12-11T09:21:20;47.50;;;40.67;;
68216;SDS011;55037;52.354;4.992;2022-12-11T09:23:54;45.17;;;39.45;;
68216;SDS011;55037;52.354;4.992;2022-12-11T09:26:24;50.08;;;42.33;;
68216;SDS011;55037;52.354;4.992;2022-12-11T09:28:52;46.70;;;40.47;;
68216;SDS011;55037;52.354;4.992;2022-12-11T09:33:56;48.50;;;41.20;;
68216;SDS011;55037;52.354;4.992;2022-12-11T09:36:24;49.65;;;42.10;;
68216;SDS011;55037;52.354;4.992;2022-12-11T09:38:53;41.45;;;35.00;;
68216;SDS011;55037;52.354;4.992;2022-12-11T09:46:25;48.70;;;41.83;;
68216;SDS011;55037;52.354;4.992;2022-12-11T09:49:00;47.35;;;42.03;;
68216;SDS011;55037;52.354;4.992;2022-12-11T09:51:39;45.00;;;39.28;;
68216;SDS011;55037;52.354;4.992;2022-12-11T09:54:13;46.63;;;41.63;;
68216;SDS011;55037;52.354;4.992;2022-12-11T09:56:59;46.40;;;40.87;;
68216;SDS011;55037;52.354;4.992;2022-12-11T10:02:52;42.60;;;38.28;;
68216;SDS011;55037;52.354;4.992;2022-12-11T10:05:46;35.78;;;32.38;;
68216;SDS011;55037;52.354;4.992;2022-12-11T10:11:20;32.08;;;29.15;;
68216;SDS011;55037;52.354;4.992;2022-12-11T10:14:12;33.13;;;30.03;;
68216;SDS011;55037;52.354;4.992;2022-12-11T10:17:01;37.15;;;33.60;;
68216;SDS011;55037;52.354;4.992;2022-12-11T10:19:38;39.72;;;35.65;;
68216;SDS011;55037;52.354;4.992;2022-12-11T10:22:11;43.65;;;38.88;;
68216;SDS011;55037;52.354;4.992;2022-12-11T10:27:38;45.30;;;39.70;;
68216;SDS011;55037;52.354;4.992;2022-12-11T10:30:14;48.07;;;41.30;;
68216;SDS011;55037;52.354;4.992;2022-12-11T10:32:54;49.17;;;42.30;;
68216;SDS011;55037;52.354;4.992;2022-12-11T10:38:29;44.40;;;39.55;;
68216;SDS011;55037;52.354;4.992;2022-12-11T10:41:00;47.42;;;41.70;;
68216;SDS011;55037;52.354;4.992;2022-12-11T10:43:38;44.72;;;39.80;;
68216;SDS011;55037;52.354;4.992;2022-12-11T10:46:13;46.58;;;40.13;;
68216;SDS011;55037;52.354;4.992;2022-12-11T10:48:45;46.63;;;41.17;;
68216;SDS011;55037;52.354;4.992;2022-12-11T10:51:13;45.53;;;39.58;;
68216;SDS011;55037;52.354;4.992;2022-12-11T10:53:41;45.03;;;38.45;;
68216;SDS011;55037;52.354;4.992;2022-12-11T10:56:10;46.65;;;40.95;;
68216;SDS011;55037;52.354;4.992;2022-12-11T10:58:38;47.90;;;42.70;;
68216;SDS011;55037;52.354;4.992;2022-12-11T11:01:15;47.78;;;42.35;;
68216;SDS011;55037;52.354;4.992;2022-12-11T11:06:20;43.38;;;37.47;;
68216;SDS011;55037;52.354;4.992;2022-12-11T11:08:49;47.73;;;42.40;;
68216;SDS011;55037;52.354;4.992;2022-12-11T11:11:23;48.37;;;43.13;;
68216;SDS011;55037;52.354;4.992;2022-12-11T11:16:55;46.67;;;41.08;;
68216;SDS011;55037;52.354;4.992;2022-12-11T11:19:28;42.08;;;37.72;;
68216;SDS011;55037;52.354;4.992;2022-12-11T11:22:06;45.03;;;40.22;;
68216;SDS011;55037;52.354;4.992;2022-12-11T11:24:39;48.53;;;43.33;;
68216;SDS011;55037;52.354;4.992;2022-12-11T11:27:19;43.97;;;39.28;;
68216;SDS011;55037;52.354;4.992;2022-12-11T11:29:57;43.58;;;38.97;;
68216;SDS011;55037;52.354;4.992;2022-12-11T11:32:31;44.90;;;40.10;;
68216;SDS011;55037;52.354;4.992;2022-12-11T11:37:39;41.63;;;37.30;;
68216;SDS011;55037;52.354;4.992;2022-12-11T11:45:51;42.28;;;37.80;;
68216;SDS011;55037;52.354;4.992;2022-12-11T11:48:27;41.60;;;37.10;;
68216;SDS011;55037;52.354;4.992;2022-12-11T11:50:56;43.28;;;38.58;;
68216;SDS011;55037;52.354;4.992;2022-12-11T11:53:34;45.97;;;41.15;;
68216;SDS011;55037;52.354;4.992;2022-12-11T11:56:17;42.75;;;37.20;;
68216;SDS011;55037;52.354;4.992;2022-12-11T11:59:02;42.55;;;37.75;;
68216;SDS011;55037;52.354;4.992;2022-12-11T12:01:39;49.30;;;40.85;;
68216;SDS011;55037;52.354;4.992;2022-12-11T12:04:07;47.03;;;40.35;;
68216;SDS011;55037;52.354;4.992;2022-12-11T12:12:41;48.97;;;41.50;;
68216;SDS011;55037;52.354;4.992;2022-12-11T12:15:34;45.30;;;40.33;;
68216;SDS011;55037;52.354;4.992;2022-12-11T12:21:18;50.63;;;42.87;;
68216;SDS011;55037;52.354;4.992;2022-12-11T12:23:53;52.45;;;43.38;;
68216;SDS011;55037;52.354;4.992;2022-12-11T12:26:32;51.20;;;43.10;;
68216;SDS011;55037;52.354;4.992;2022-12-11T12:32:03;48.75;;;41.75;;
68216;SDS011;55037;52.354;4.992;2022-12-11T12:37:15;51.47;;;43.70;;
68216;SDS011;55037;52.354;4.992;2022-12-11T12:43:34;47.42;;;41.97;;
68216;SDS011;55037;52.354;4.992;2022-12-11T12:48:54;48.90;;;41.03;;
68216;SDS011;55037;52.354;4.992;2022-12-11T12:51:24;48.42;;;41.75;;
68216;SDS011;55037;52.354;4.992;2022-12-11T12:53:56;45.15;;;40.20;;
68216;SDS011;55037;52.354;4.992;2022-12-11T12:56:28;47.17;;;40.13;;
68216;SDS011;55037;52.354;4.992;2022-12-11T12:58:57;46.53;;;39.58;;
68216;SDS011;55037;52.354;4.992;2022-12-11T13:01:25;46.63;;;40.15;;
68216;SDS011;55037;52.354;4.992;2022-12-11T13:03:58;54.15;;;44.30;;
68216;SDS011;55037;52.354;4.992;2022-12-11T13:06:40;43.67;;;38.30;;
68216;SDS011;55037;52.354;4.992;2022-12-11T13:09:21;45.20;;;39.45;;
68216;SDS011;55037;52.354;4.992;2022-12-11T13:11:51;43.85;;;39.15;;
68216;SDS011;55037;52.354;4.992;2022-12-11T13:14:25;46.58;;;40.88;;
68216;SDS011;55037;52.354;4.992;2022-12-11T13:17:05;44.10;;;39.15;;
68216;SDS011;55037;52.354;4.992;2022-12-11T13:20:05;40.97;;;36.67;;
68216;SDS011;55037;52.354;4.992;2022-12-11T13:22:49;39.67;;;35.67;;
68216;SDS011;55037;52.354;4.992;2022-12-11T13:25:27;39.17;;;35.30;;
68216;SDS011;55037;52.354;4.992;2022-12-11T13:28:06;39.55;;;35.55;;
68216;SDS011;55037;52.354;4.992;2022-12-11T13:30:54;37.25;;;33.65;;
68216;SDS011;55037;52.354;4.992;2022-12-11T13:33:27;39.25;;;35.35;;
68216;SDS011;55037;52.354;4.992;2022-12-11T13:39:36;36.10;;;32.58;;
68216;SDS011;55037;52.354;4.992;2022-12-11T13:41:43;33.28;;;30.10;;
68216;SDS011;55037;52.354;4.992;2022-12-11T13:44:16;36.17;;;32.70;;
68216;SDS011;55037;52.354;4.992;2022-12-11T13:46:52;40.95;;;35.72;;
68216;SDS011;55037;52.354;4.992;2022-12-11T13:49:25;46.58;;;40.05;;
68216;SDS011;55037;52.354;4.992;2022-12-11T13:51:56;46.10;;;39.72;;
68216;SDS011;55037;52.354;4.992;2022-12-11T13:54:26;50.37;;;42.10;;
68216;SDS011;55037;52.354;4.992;2022-12-11T13:57:16;50.53;;;43.28;;
68216;SDS011;55037;52.354;4.992;2022-12-11T13:59:54;45.20;;;38.45;;
68216;SDS011;55037;52.354;4.992;2022-12-11T14:04:59;57.50;;;44.47;;
68216;SDS011;55037;52.354;4.992;2022-12-11T14:07:32;56.03;;;43.37;;
68216;SDS011;55037;52.354;4.992;2022-12-11T14:10:04;54.50;;;43.00;;
68216;SDS011;55037;52.354;4.992;2022-12-11T14:12:35;56.53;;;44.42;;
68216;SDS011;55037;52.354;4.992;2022-12-11T14:15:03;55.37;;;43.07;;
68216;SDS011;55037;52.354;4.992;2022-12-11T14:17:31;61.20;;;45.80;;
68216;SDS011;55037;52.354;4.992;2022-12-11T14:20:02;61.30;;;46.10;;
68216;SDS011;55037;52.354;4.992;2022-12-11T14:22:33;60.22;;;45.92;;
68216;SDS011;55037;52.354;4.992;2022-12-11T14:25:01;63.75;;;47.80;;
68216;SDS011;55037;52.354;4.992;2022-12-11T14:27:48;65.03;;;48.67;;
68216;SDS011;55037;52.354;4.992;2022-12-11T14:30:24;59.83;;;44.35;;
68216;SDS011;55037;52.354;4.992;2022-12-11T14:32:55;59.47;;;45.95;;
68216;SDS011;55037;52.354;4.992;2022-12-11T14:35:38;57.63;;;44.20;;
68216;SDS011;55037;52.354;4.992;2022-12-11T14:38:11;60.15;;;44.28;;
68216;SDS011;55037;52.354;4.992;2022-12-11T14:40:49;59.08;;;44.05;;
68216;SDS011;55037;52.354;4.992;2022-12-11T14:43:22;58.87;;;44.30;;
68216;SDS011;55037;52.354;4.992;2022-12-11T14:45:59;58.47;;;43.13;;
68216;SDS011;55037;52.354;4.992;2022-12-11T14:48:34;60.40;;;44.33;;
68216;SDS011;55037;52.354;4.992;2022-12-11T14:51:10;57.75;;;44.10;;
68216;SDS011;55037;52.354;4.992;2022-12-11T14:53:41;62.80;;;44.78;;
68216;SDS011;55037;52.354;4.992;2022-12-11T14:56:16;62.60;;;46.67;;
68216;SDS011;55037;52.354;4.992;2022-12-11T14:58:50;60.00;;;43.83;;
68216;SDS011;55037;52.354;4.992;2022-12-11T15:01:27;58.93;;;44.63;;
68216;SDS011;55037;52.354;4.992;2022-12-11T15:06:42;58.25;;;43.28;;
68216;SDS011;55037;52.354;4.992;2022-12-11T15:11:44;62.15;;;44.22;;
68216;SDS011;55037;52.354;4.992;2022-12-11T15:14:14;64.15;;;46.45;;
68216;SDS011;55037;52.354;4.992;2022-12-11T15:16:43;61.95;;;44.33;;
68216;SDS011;55037;52.354;4.992;2022-12-11T15:19:16;62.65;;;44.67;;
68216;SDS011;55037;52.354;4.992;2022-12-11T15:21:46;56.33;;;42.35;;
68216;SDS011;55037;52.354;4.992;2022-12-11T15:24:24;60.00;;;44.33;;
68216;SDS011;55037;52.354;4.992;2022-12-11T15:30:14;60.60;;;45.33;;
68216;SDS011;55037;52.354;4.992;2022-12-11T15:35:38;63.35;;;45.40;;
68216;SDS011;55037;52.354;4.992;2022-12-11T15:38:23;62.17;;;47.05;;
68216;SDS011;55037;52.354;4.992;2022-12-11T15:40:56;66.15;;;49.15;;
68216;SDS011;55037;52.354;4.992;2022-12-11T15:43:23;62.00;;;47.20;;
68216;SDS011;55037;52.354;4.992;2022-12-11T15:45:51;60.95;;;45.65;;
68216;SDS011;55037;52.354;4.992;2022-12-11T15:48:19;61.08;;;44.78;;
68216;SDS011;55037;52.354;4.992;2022-12-11T15:50:46;61.58;;;45.10;;
68216;SDS011;55037;52.354;4.992;2022-12-11T15:53:13;63.42;;;47.47;;
68216;SDS011;55037;52.354;4.992;2022-12-11T15:55:41;61.70;;;46.17;;
68216;SDS011;55037;52.354;4.992;2022-12-11T15:58:11;55.88;;;41.90;;
68216;SDS011;55037;52.354;4.992;2022-12-11T16:00:45;60.90;;;46.50;;
68216;SDS011;55037;52.354;4.992;2022-12-11T16:03:13;60.20;;;45.67;;
68216;SDS011;55037;52.354;4.992;2022-12-11T16:05:42;62.63;;;45.40;;
68216;SDS011;55037;52.354;4.992;2022-12-11T16:08:13;59.63;;;43.85;;
68216;SDS011;55037;52.354;4.992;2022-12-11T16:10:42;63.97;;;47.43;;
68216;SDS011;55037;52.354;4.992;2022-12-11T16:13:11;60.83;;;46.20;;
68216;SDS011;55037;52.354;4.992;2022-12-11T16:15:39;59.03;;;44.97;;
68216;SDS011;55037;52.354;4.992;2022-12-11T16:18:10;64.40;;;46.50;;
68216;SDS011;55037;52.354;4.992;2022-12-11T16:20:42;61.80;;;46.05;;
68216;SDS011;55037;52.354;4.992;2022-12-11T16:23:10;62.67;;;45.70;;